createdAt,value
2018-01-03T00:00:38.215Z,936.2
2018-01-03T00:01:46.303Z,936.2
2018-01-03T00:02:54.509Z,936.2
2018-01-03T00:04:02.491Z,936.1
2018-01-03T00:05:10.606Z,936.1
2018-01-03T00:06:18.681Z,936.1
2018-01-03T00:07:26.835Z,936.0
2018-01-03T00:08:35.003Z,936.0
2018-01-03T00:09:43.026Z,936.0
2018-01-03T00:10:51.976Z,936.0
2018-01-03T00:12:00.068Z,935.9
2018-01-03T00:13:08.163Z,935.9
2018-01-03T00:14:16.372Z,935.8
2018-01-03T00:15:24.362Z,935.8
2018-01-03T00:16:32.433Z,935.9
2018-01-03T00:17:40.534Z,935.8
2018-01-03T00:18:48.615Z,935.8
2018-01-03T00:19:56.773Z,935.8
2018-01-03T00:21:04.802Z,935.7
2018-01-03T00:22:12.904Z,935.6
2018-01-03T00:23:21.038Z,935.6
2018-01-03T00:24:29.080Z,935.6
2018-01-03T00:25:37.239Z,935.5
2018-01-03T00:26:45.259Z,935.5
2018-01-03T00:27:53.372Z,935.5
2018-01-03T00:29:01.454Z,935.5
2018-01-03T00:30:09.526Z,935.5
2018-01-03T00:31:17.678Z,935.4
2018-01-03T00:32:25.729Z,935.3
2018-01-03T00:33:33.808Z,935.3
2018-01-03T00:34:41.904Z,935.3
2018-01-03T00:35:50.001Z,935.3
2018-01-03T00:36:58.152Z,935.3
2018-01-03T00:38:06.189Z,935.3
2018-01-03T00:39:14.330Z,935.2
2018-01-03T00:40:22.730Z,935.2
2018-01-03T00:41:30.494Z,935.2
2018-01-03T00:42:38.635Z,935.3
2018-01-03T00:43:46.661Z,935.3
2018-01-03T00:44:54.762Z,935.2
2018-01-03T00:46:02.852Z,935.2
2018-01-03T00:47:10.937Z,935.2
2018-01-03T00:48:19.163Z,935.2
2018-01-03T00:49:27.125Z,935.2
2018-01-03T00:50:35.227Z,935.1
2018-01-03T00:51:43.317Z,935.1
2018-01-03T00:52:51.414Z,935.1
2018-01-03T00:53:59.549Z,935.1
2018-01-03T00:55:07.707Z,935.1
2018-01-03T00:56:15.665Z,935.0
2018-01-03T00:57:23.760Z,935.0
2018-01-03T00:58:31.846Z,935.0
2018-01-03T00:59:40.064Z,934.9
2018-01-03T01:00:48.036Z,934.8
2018-01-03T01:01:56.132Z,934.7
2018-01-03T01:03:04.225Z,934.7
2018-01-03T01:04:12.323Z,934.7
2018-01-03T01:05:20.469Z,934.7
2018-01-03T01:06:28.516Z,934.8
2018-01-03T01:07:36.605Z,934.8
2018-01-03T01:08:44.692Z,934.7
2018-01-03T01:09:52.789Z,934.7
2018-01-03T01:11:00.939Z,934.6
2018-01-03T01:12:08.989Z,934.6
2018-01-03T01:13:17.092Z,934.5
2018-01-03T01:14:25.202Z,934.5
2018-01-03T01:15:33.288Z,934.4
2018-01-03T01:16:41.504Z,934.5
2018-01-03T01:17:49.471Z,934.4
2018-01-03T01:18:57.567Z,934.4
2018-01-03T01:20:05.658Z,934.4
2018-01-03T01:21:13.742Z,934.4
2018-01-03T01:22:21.949Z,934.3
2018-01-03T01:23:29.925Z,934.3
2018-01-03T01:24:38.014Z,934.2
2018-01-03T01:25:46.107Z,934.2
2018-01-03T01:26:54.247Z,934.2
2018-01-03T01:28:02.428Z,934.1
2018-01-03T01:29:10.402Z,934.0
2018-01-03T01:30:18.508Z,934.0
2018-01-03T01:31:26.602Z,934.0
2018-01-03T01:32:34.690Z,934.0
2018-01-03T01:33:42.896Z,934.1
2018-01-03T01:34:50.867Z,934.1
2018-01-03T01:35:58.953Z,934.1
2018-01-03T01:37:07.042Z,934.2
2018-01-03T01:38:15.130Z,934.2
2018-01-03T01:39:23.277Z,934.2
2018-01-03T01:40:31.322Z,934.2
2018-01-03T01:41:39.415Z,934.1
2018-01-03T01:42:47.621Z,934.1
2018-01-03T01:43:55.586Z,934.1
2018-01-03T01:45:03.735Z,934.1
2018-01-03T01:46:11.780Z,934.1
2018-01-03T01:47:19.866Z,934.2
2018-01-03T01:48:27.963Z,934.2
2018-01-03T01:49:36.053Z,934.3
2018-01-03T01:50:44.209Z,934.3
2018-01-03T01:51:52.243Z,934.3
2018-01-03T01:53:00.328Z,934.2
2018-01-03T01:54:08.439Z,934.2
2018-01-03T01:55:16.527Z,934.1
2018-01-03T01:56:24.677Z,934.1
2018-01-03T01:57:32.717Z,934.0
2018-01-03T01:58:40.926Z,933.9
2018-01-03T01:59:48.907Z,933.9
2018-01-03T02:00:57.006Z,933.9
2018-01-03T02:02:05.156Z,933.8
2018-01-03T02:03:13.196Z,933.7
2018-01-03T02:04:21.282Z,933.6
2018-01-03T02:05:29.366Z,933.6
2018-01-03T02:06:37.467Z,933.5
2018-01-03T02:07:45.612Z,933.5
2018-01-03T02:08:53.641Z,933.3
2018-01-03T02:10:01.751Z,933.2
2018-01-03T02:11:09.837Z,933.3
2018-01-03T02:12:17.924Z,933.2
2018-01-03T02:13:26.155Z,933.3
2018-01-03T02:14:34.189Z,933.3
2018-01-03T02:15:42.233Z,933.4
2018-01-03T02:16:50.312Z,933.3
2018-01-03T02:17:58.412Z,933.3
2018-01-03T02:19:06.610Z,933.3
2018-01-03T02:20:14.580Z,933.3
2018-01-03T02:21:22.676Z,933.3
2018-01-03T02:22:30.762Z,933.3
2018-01-03T02:23:38.846Z,933.2
2018-01-03T02:24:46.999Z,933.2
2018-01-03T02:25:55.033Z,933.3
2018-01-03T02:27:03.120Z,933.2
2018-01-03T02:28:11.216Z,933.2
2018-01-03T02:29:19.307Z,933.0
2018-01-03T02:30:27.509Z,933.0
2018-01-03T02:31:36.485Z,933.0
2018-01-03T02:32:44.575Z,932.9
2018-01-03T02:33:52.680Z,932.8
2018-01-03T02:35:00.959Z,932.8
2018-01-03T02:36:09.050Z,932.9
2018-01-03T02:37:17.023Z,933.0
2018-01-03T02:38:25.113Z,933.1
2018-01-03T02:39:33.196Z,933.0
2018-01-03T02:40:41.286Z,933.1
2018-01-03T02:41:49.441Z,933.1
2018-01-03T02:42:57.484Z,933.2
2018-01-03T02:44:05.566Z,933.1
2018-01-03T02:45:13.653Z,933.0
2018-01-03T02:46:21.800Z,932.9
2018-01-03T02:47:29.900Z,932.9
2018-01-03T02:48:37.927Z,932.8
2018-01-03T02:49:46.025Z,932.8
2018-01-03T02:50:54.125Z,932.8
2018-01-03T02:52:02.207Z,932.7
2018-01-03T02:53:10.376Z,932.7
2018-01-03T02:54:18.403Z,932.6
2018-01-03T02:55:26.494Z,932.5
2018-01-03T02:56:34.586Z,932.5
2018-01-03T02:57:42.669Z,932.4
2018-01-03T02:58:50.877Z,932.3
2018-01-03T02:59:58.844Z,932.3
2018-01-03T03:01:06.943Z,932.2
2018-01-03T03:02:15.076Z,932.2
2018-01-03T03:03:23.107Z,932.2
2018-01-03T03:04:31.372Z,932.1
2018-01-03T03:05:39.358Z,932.1
2018-01-03T03:06:47.460Z,932.2
2018-01-03T03:07:55.545Z,932.1
2018-01-03T03:09:03.631Z,932.0
2018-01-03T03:10:11.842Z,932.0
2018-01-03T03:11:19.820Z,931.9
2018-01-03T03:12:27.910Z,931.8
2018-01-03T03:13:35.996Z,931.8
2018-01-03T03:14:44.098Z,931.7
2018-01-03T03:15:52.244Z,931.7
2018-01-03T03:17:00.268Z,931.7
2018-01-03T03:18:08.945Z,931.6
2018-01-03T03:19:16.996Z,931.6
2018-01-03T03:20:25.079Z,931.6
2018-01-03T03:21:33.218Z,931.5
2018-01-03T03:22:41.275Z,931.4
2018-01-03T03:23:49.350Z,931.2
2018-01-03T03:24:57.437Z,931.2
2018-01-03T03:26:05.531Z,931.2
2018-01-03T03:27:13.742Z,931.2
2018-01-03T03:28:21.703Z,931.2
2018-01-03T03:29:29.794Z,931.1
2018-01-03T03:30:37.876Z,931.1
2018-01-03T03:31:45.968Z,931.1
2018-01-03T03:32:54.190Z,931.1
2018-01-03T03:34:02.273Z,931.1
2018-01-03T03:35:10.243Z,931.0
2018-01-03T03:36:18.330Z,931.0
2018-01-03T03:37:26.412Z,931.0
2018-01-03T03:38:34.557Z,930.9
2018-01-03T03:39:42.590Z,930.9
2018-01-03T03:40:50.695Z,930.9
2018-01-03T03:41:58.781Z,930.8
2018-01-03T03:43:06.880Z,930.8
2018-01-03T03:44:15.031Z,930.7
2018-01-03T03:45:23.064Z,930.7
2018-01-03T03:46:31.162Z,930.6
2018-01-03T03:47:39.254Z,930.5
2018-01-03T03:48:47.340Z,930.5
2018-01-03T03:49:55.553Z,930.5
2018-01-03T03:51:03.528Z,930.5
2018-01-03T03:52:11.602Z,930.5
2018-01-03T03:53:19.689Z,930.3
2018-01-03T03:54:27.780Z,930.3
2018-01-03T03:55:35.939Z,930.2
2018-01-03T03:56:43.951Z,930.0
2018-01-03T03:57:52.067Z,930.0
2018-01-03T03:59:00.145Z,929.9
2018-01-03T04:00:08.244Z,930.0
2018-01-03T04:01:16.389Z,930.0
2018-01-03T04:02:24.433Z,930.0
2018-01-03T04:03:32.525Z,929.9
2018-01-03T04:04:40.689Z,930.1
2018-01-03T04:05:48.833Z,930.0
2018-01-03T04:06:56.935Z,930.0
2018-01-03T04:08:04.971Z,929.9
2018-01-03T04:09:13.065Z,929.9
2018-01-03T04:10:21.179Z,929.9
2018-01-03T04:11:29.264Z,929.9
2018-01-03T04:12:37.427Z,929.8
2018-01-03T04:13:45.451Z,929.8
2018-01-03T04:14:53.549Z,929.7
2018-01-03T04:16:01.644Z,929.7
2018-01-03T04:17:09.721Z,929.5
2018-01-03T04:18:17.933Z,929.5
2018-01-03T04:19:25.897Z,929.5
2018-01-03T04:20:33.979Z,929.4
2018-01-03T04:21:42.151Z,929.4
2018-01-03T04:22:50.184Z,929.4
2018-01-03T04:23:58.405Z,929.5
2018-01-03T04:25:06.382Z,929.5
2018-01-03T04:26:15.164Z,929.5
2018-01-03T04:27:23.233Z,929.4
2018-01-03T04:28:31.312Z,929.4
2018-01-03T04:29:39.516Z,929.4
2018-01-03T04:30:47.477Z,929.4
2018-01-03T04:31:55.978Z,929.4
2018-01-03T04:33:04.072Z,929.3
2018-01-03T04:34:12.166Z,929.3
2018-01-03T04:35:20.303Z,929.2
2018-01-03T04:36:28.336Z,929.1
2018-01-03T04:37:36.480Z,929.1
2018-01-03T04:38:44.515Z,929.1
2018-01-03T04:39:52.605Z,929.1
2018-01-03T04:41:00.820Z,929.0
2018-01-03T04:42:08.784Z,929.1
2018-01-03T04:43:16.871Z,928.9
2018-01-03T04:44:24.963Z,928.9
2018-01-03T04:45:33.062Z,928.7
2018-01-03T04:46:41.213Z,928.5
2018-01-03T04:47:49.236Z,928.5
2018-01-03T04:48:57.322Z,928.5
2018-01-03T04:50:05.407Z,928.4
2018-01-03T04:51:13.499Z,928.5
2018-01-03T04:52:21.639Z,928.3
2018-01-03T04:53:29.789Z,928.3
2018-01-03T04:54:37.756Z,928.2
2018-01-03T04:55:45.849Z,928.3
2018-01-03T04:56:53.940Z,928.1
2018-01-03T04:58:02.167Z,928.1
2018-01-03T04:59:10.106Z,928.1
2018-01-03T05:00:18.200Z,928.1
2018-01-03T05:01:26.291Z,928.2
2018-01-03T05:02:34.509Z,928.1
2018-01-03T05:03:42.674Z,928.0
2018-01-03T05:04:50.685Z,927.9
2018-01-03T05:05:58.778Z,927.7
2018-01-03T05:07:06.883Z,927.7
2018-01-03T05:08:14.970Z,927.6
2018-01-03T05:09:23.186Z,927.5
2018-01-03T05:10:31.797Z,927.4
2018-01-03T05:11:39.883Z,927.4
2018-01-03T05:12:47.968Z,927.4
2018-01-03T05:13:56.066Z,927.4
2018-01-03T05:15:04.223Z,927.5
2018-01-03T05:16:12.253Z,927.5
2018-01-03T05:17:20.345Z,927.5
2018-01-03T05:18:28.438Z,927.5
2018-01-03T05:19:36.518Z,927.6
2018-01-03T05:20:44.668Z,927.5
2018-01-03T05:21:52.701Z,927.5
2018-01-03T05:23:00.789Z,927.4
2018-01-03T05:24:08.875Z,927.3
2018-01-03T05:25:17.097Z,927.2
2018-01-03T05:26:25.123Z,927.2
2018-01-03T05:27:33.154Z,927.1
2018-01-03T05:28:41.241Z,927.0
2018-01-03T05:29:49.334Z,927.0
2018-01-03T05:30:57.421Z,926.7
2018-01-03T05:32:05.575Z,926.8
2018-01-03T05:33:13.608Z,926.9
2018-01-03T05:34:21.694Z,926.7
2018-01-03T05:35:29.799Z,926.9
2018-01-03T05:36:37.872Z,926.6
2018-01-03T05:37:46.024Z,926.7
2018-01-03T05:38:54.054Z,926.8
2018-01-03T05:40:02.143Z,926.7
2018-01-03T05:41:10.286Z,926.8
2018-01-03T05:42:18.310Z,926.8
2018-01-03T05:43:26.454Z,926.7
2018-01-03T05:44:34.501Z,926.7
2018-01-03T05:45:42.585Z,926.5
2018-01-03T05:46:50.671Z,926.5
2018-01-03T05:47:58.771Z,926.3
2018-01-03T05:49:06.976Z,926.3
2018-01-03T05:50:14.943Z,926.4
2018-01-03T05:51:23.033Z,926.6
2018-01-03T05:52:31.132Z,926.3
2018-01-03T05:53:39.233Z,926.2
2018-01-03T05:54:47.370Z,926.1
2018-01-03T05:55:55.407Z,926.0
2018-01-03T05:57:03.543Z,926.0
2018-01-03T05:58:11.577Z,925.8
2018-01-03T05:59:19.673Z,925.7
2018-01-03T06:00:27.830Z,925.8
2018-01-03T06:01:35.857Z,925.8
2018-01-03T06:02:43.950Z,925.8
2018-01-03T06:03:52.031Z,925.8
2018-01-03T06:05:00.125Z,925.8
2018-01-03T06:06:08.276Z,925.8
2018-01-03T06:07:16.316Z,925.7
2018-01-03T06:08:24.411Z,925.7
2018-01-03T06:09:32.495Z,925.6
2018-01-03T06:10:40.591Z,925.6
2018-01-03T06:11:48.730Z,925.5
2018-01-03T06:12:56.893Z,925.5
2018-01-03T06:14:04.872Z,925.5
2018-01-03T06:15:12.954Z,925.4
2018-01-03T06:16:21.036Z,925.4
2018-01-03T06:17:29.185Z,925.5
2018-01-03T06:18:37.220Z,925.4
2018-01-03T06:19:45.302Z,925.5
2018-01-03T06:20:53.392Z,925.5
2018-01-03T06:22:01.486Z,925.5
2018-01-03T06:23:09.657Z,925.4
2018-01-03T06:24:17.691Z,925.3
2018-01-03T06:25:25.772Z,925.3
2018-01-03T06:26:33.862Z,925.2
2018-01-03T06:27:41.959Z,924.9
2018-01-03T06:28:50.179Z,924.6
2018-01-03T06:29:58.489Z,924.5
2018-01-03T06:31:06.568Z,924.4
2018-01-03T06:32:14.655Z,924.3
2018-01-03T06:33:22.763Z,924.4
2018-01-03T06:34:30.896Z,924.4
2018-01-03T06:35:38.940Z,924.3
2018-01-03T06:36:47.030Z,924.4
2018-01-03T06:37:55.133Z,924.5
2018-01-03T06:39:03.235Z,924.7
2018-01-03T06:40:11.376Z,924.7
2018-01-03T06:41:19.401Z,924.6
2018-01-03T06:42:27.490Z,924.7
2018-01-03T06:43:35.591Z,924.7
2018-01-03T06:44:43.728Z,924.6
2018-01-03T06:45:51.842Z,924.5
2018-01-03T06:46:59.869Z,924.5
2018-01-03T06:48:07.951Z,924.5
2018-01-03T06:49:16.039Z,924.0
2018-01-03T06:50:24.129Z,923.6
2018-01-03T06:51:32.276Z,923.7
2018-01-03T06:52:40.314Z,923.8
2018-01-03T06:53:48.408Z,923.8
2018-01-03T06:54:56.502Z,923.7
2018-01-03T06:56:04.602Z,923.6
2018-01-03T06:57:12.741Z,923.5
2018-01-03T06:58:20.765Z,923.6
2018-01-03T06:59:28.851Z,923.6
2018-01-03T07:00:37.003Z,923.6
2018-01-03T07:01:45.035Z,923.7
2018-01-03T07:02:53.174Z,923.6
2018-01-03T07:04:01.200Z,923.9
2018-01-03T07:05:09.289Z,923.8
2018-01-03T07:06:17.373Z,923.8
2018-01-03T07:07:25.480Z,923.9
2018-01-03T07:08:33.693Z,923.9
2018-01-03T07:09:41.655Z,924.0
2018-01-03T07:10:49.744Z,923.8
2018-01-03T07:11:57.829Z,923.9
2018-01-03T07:13:05.920Z,923.7
2018-01-03T07:14:14.069Z,923.5
2018-01-03T07:15:22.102Z,923.5
2018-01-03T07:16:30.248Z,923.5
2018-01-03T07:17:38.276Z,923.4
2018-01-03T07:18:46.375Z,923.2
2018-01-03T07:19:54.509Z,923.2
2018-01-03T07:21:02.532Z,923.2
2018-01-03T07:22:10.645Z,923.3
2018-01-03T07:23:18.731Z,923.2
2018-01-03T07:24:26.812Z,923.3
2018-01-03T07:25:34.965Z,923.2
2018-01-03T07:26:42.991Z,922.9
2018-01-03T07:27:51.073Z,923.0
2018-01-03T07:28:59.176Z,922.8
2018-01-03T07:30:07.260Z,922.8
2018-01-03T07:31:15.398Z,922.9
2018-01-03T07:32:23.497Z,922.9
2018-01-03T07:33:31.528Z,923.0
2018-01-03T07:34:39.617Z,923.0
2018-01-03T07:35:47.714Z,923.0
2018-01-03T07:36:55.921Z,922.9
2018-01-03T07:38:03.887Z,923.0
2018-01-03T07:39:11.971Z,923.0
2018-01-03T07:40:20.755Z,922.8
2018-01-03T07:41:28.842Z,922.6
2018-01-03T07:42:36.980Z,922.5
2018-01-03T07:43:45.014Z,922.6
2018-01-03T07:44:53.115Z,922.5
2018-01-03T07:46:01.202Z,922.5
2018-01-03T07:47:09.286Z,922.5
2018-01-03T07:48:19.870Z,922.3
2018-01-03T07:49:28.055Z,922.3
2018-01-03T07:50:36.146Z,922.3
2018-01-03T07:51:44.244Z,922.4
2018-01-03T07:52:52.997Z,922.3
2018-01-03T07:54:01.216Z,922.2
2018-01-03T07:55:09.180Z,922.2
2018-01-03T07:56:17.268Z,922.2
2018-01-03T07:57:25.361Z,922.0
2018-01-03T07:58:33.451Z,922.0
2018-01-03T07:59:41.599Z,922.1
2018-01-03T08:00:49.729Z,922.1
2018-01-03T08:01:57.719Z,922.1
2018-01-03T08:03:05.807Z,922.1
2018-01-03T08:04:13.945Z,922.1
2018-01-03T08:05:22.030Z,921.9
2018-01-03T08:06:30.083Z,922.0
2018-01-03T08:07:38.178Z,921.7
2018-01-03T08:08:46.262Z,921.5
2018-01-03T08:09:54.384Z,922.0
2018-01-03T08:11:02.490Z,921.7
2018-01-03T08:12:10.516Z,921.5
2018-01-03T08:13:18.600Z,921.6
2018-01-03T08:14:26.739Z,921.7
2018-01-03T08:15:34.999Z,921.6
2018-01-03T08:16:42.986Z,921.5
2018-01-03T08:17:50.955Z,921.4
2018-01-03T08:18:59.049Z,921.4
2018-01-03T08:20:07.194Z,921.6
2018-01-03T08:21:15.272Z,921.5
2018-01-03T08:22:23.377Z,921.5
2018-01-03T08:23:31.401Z,921.5
2018-01-03T08:24:39.489Z,921.5
2018-01-03T08:25:47.574Z,921.5
2018-01-03T08:26:55.676Z,921.5
2018-01-03T08:28:03.874Z,921.4
2018-01-03T08:29:11.834Z,921.5
2018-01-03T08:30:19.917Z,921.5
2018-01-03T08:31:28.020Z,921.5
2018-01-03T08:32:36.097Z,921.7
2018-01-03T08:33:44.240Z,921.6
2018-01-03T08:34:52.274Z,921.6
2018-01-03T08:36:00.746Z,921.5
2018-01-03T08:37:08.460Z,921.7
2018-01-03T08:38:16.669Z,921.8
2018-01-03T08:39:24.637Z,921.9
2018-01-03T08:40:32.944Z,921.8
2018-01-03T08:41:40.819Z,921.7
2018-01-03T08:42:48.906Z,921.7
2018-01-03T08:43:57.118Z,921.8
2018-01-03T08:45:05.211Z,921.7
2018-01-03T08:46:13.159Z,921.6
2018-01-03T08:47:21.272Z,921.3
2018-01-03T08:48:29.509Z,921.4
2018-01-03T08:49:37.509Z,921.5
2018-01-03T08:50:45.550Z,921.5
2018-01-03T08:51:54.051Z,921.6
2018-01-03T08:53:01.734Z,921.6
2018-01-03T08:54:09.819Z,921.6
2018-01-03T08:55:17.968Z,921.5
2018-01-03T08:56:25.997Z,921.7
2018-01-03T08:57:34.090Z,921.7
2018-01-03T08:58:42.185Z,921.6
2018-01-03T08:59:50.276Z,921.6
2018-01-03T09:00:58.428Z,921.6
2018-01-03T09:02:06.472Z,921.4
2018-01-03T09:03:14.548Z,921.7
2018-01-03T09:04:22.633Z,921.7
2018-01-03T09:05:30.718Z,921.8
2018-01-03T09:06:39.195Z,921.8
2018-01-03T09:07:46.948Z,921.9
2018-01-03T09:08:54.984Z,922.0
2018-01-03T09:10:03.070Z,921.9
2018-01-03T09:11:11.168Z,922.0
2018-01-03T09:12:19.314Z,922.1
2018-01-03T09:13:27.346Z,922.2
2018-01-03T09:14:35.449Z,922.1
2018-01-03T09:15:43.531Z,921.9
2018-01-03T09:16:51.616Z,922.1
2018-01-03T09:17:59.763Z,922.0
2018-01-03T09:19:07.816Z,922.1
2018-01-03T09:20:15.899Z,922.3
2018-01-03T09:21:23.983Z,922.4
2018-01-03T09:22:32.068Z,922.3
2018-01-03T09:23:40.219Z,922.5
2018-01-03T09:24:48.258Z,922.4
2018-01-03T09:25:56.335Z,922.4
2018-01-03T09:27:04.430Z,922.4
2018-01-03T09:28:12.518Z,922.4
2018-01-03T09:29:20.652Z,922.7
2018-01-03T09:30:28.686Z,922.5
2018-01-03T09:31:36.777Z,922.7
2018-01-03T09:32:44.870Z,922.9
2018-01-03T09:33:52.957Z,923.3
2018-01-03T09:35:02.740Z,923.3
2018-01-03T09:36:09.128Z,923.4
2018-01-03T09:37:17.216Z,923.1
2018-01-03T09:38:25.304Z,922.9
2018-01-03T09:39:33.453Z,923.1
2018-01-03T09:40:41.605Z,923.5
2018-01-03T09:41:49.576Z,923.7
2018-01-03T09:42:57.660Z,923.8
2018-01-03T09:44:05.758Z,924.1
2018-01-03T09:45:13.839Z,924.3
2018-01-03T09:46:21.992Z,923.9
2018-01-03T09:47:30.019Z,924.1
2018-01-03T09:48:38.112Z,924.1
2018-01-03T09:49:46.194Z,923.9
2018-01-03T09:50:54.300Z,924.1
2018-01-03T09:52:02.517Z,924.4
2018-01-03T09:53:10.493Z,924.7
2018-01-03T09:54:18.576Z,924.7
2018-01-03T09:55:26.727Z,924.5
2018-01-03T09:56:34.781Z,924.7
2018-01-03T09:57:42.967Z,924.7
2018-01-03T09:58:50.956Z,924.5
2018-01-03T09:59:59.032Z,924.6
2018-01-03T10:01:07.117Z,924.7
2018-01-03T10:02:15.247Z,924.6
2018-01-03T10:03:23.362Z,924.4
2018-01-03T10:04:31.391Z,924.6
2018-01-03T10:05:39.477Z,924.5
2018-01-03T10:06:47.617Z,924.3
2018-01-03T10:07:55.674Z,924.2
2018-01-03T10:09:03.804Z,924.4
2018-01-03T10:10:11.968Z,924.5
2018-01-03T10:11:19.968Z,924.4
2018-01-03T10:12:27.999Z,924.5
2018-01-03T10:13:36.116Z,924.6
2018-01-03T10:14:44.243Z,924.7
2018-01-03T10:15:52.282Z,924.7
2018-01-03T10:17:00.369Z,924.7
2018-01-03T10:18:08.603Z,924.5
2018-01-03T10:19:16.694Z,924.6
2018-01-03T10:20:24.706Z,924.7
2018-01-03T10:21:32.722Z,924.6
2018-01-03T10:22:40.822Z,924.6
2018-01-03T10:23:48.914Z,924.7
2018-01-03T10:24:57.000Z,924.5
2018-01-03T10:26:05.154Z,924.7
2018-01-03T10:27:13.247Z,924.7
2018-01-03T10:28:21.280Z,924.8
2018-01-03T10:29:29.678Z,924.9
2018-01-03T10:30:37.601Z,925.0
2018-01-03T10:31:45.863Z,925.1
2018-01-03T10:32:53.800Z,925.2
2018-01-03T10:34:01.883Z,925.4
2018-01-03T10:35:09.963Z,925.7
2018-01-03T10:36:18.046Z,925.6
2018-01-03T10:37:26.201Z,925.6
2018-01-03T10:38:34.250Z,925.6
2018-01-03T10:39:42.329Z,925.8
2018-01-03T10:40:50.415Z,925.9
2018-01-03T10:41:58.500Z,925.8
2018-01-03T10:43:06.719Z,925.4
2018-01-03T10:44:14.693Z,925.9
2018-01-03T10:45:22.784Z,926.0
2018-01-03T10:46:31.125Z,926.2
2018-01-03T10:47:39.215Z,926.5
2018-01-03T10:48:47.762Z,926.6
2018-01-03T10:49:55.545Z,926.4
2018-01-03T10:51:03.543Z,926.8
2018-01-03T10:52:11.395Z,926.3
2018-01-03T10:53:19.433Z,926.5
2018-01-03T10:54:29.015Z,926.5
2018-01-03T10:55:38.190Z,926.4
2018-01-03T10:56:49.290Z,926.9
2018-01-03T10:57:59.511Z,926.7
2018-01-03T10:59:07.594Z,926.6
2018-01-03T11:00:15.776Z,926.3
2018-01-03T11:01:23.778Z,926.2
2018-01-03T11:02:31.857Z,926.1
2018-01-03T11:03:39.951Z,926.6
2018-01-03T11:04:48.034Z,926.8
2018-01-03T11:05:56.288Z,927.1
2018-01-03T11:07:04.319Z,926.8
2018-01-03T11:08:12.424Z,927.0
2018-01-03T11:09:20.516Z,927.1
2018-01-03T11:10:28.608Z,927.2
2018-01-03T11:11:36.750Z,926.9
2018-01-03T11:12:44.778Z,926.8
2018-01-03T11:13:53.000Z,926.9
2018-01-03T11:15:01.122Z,927.0
2018-01-03T11:16:09.071Z,926.9
2018-01-03T11:17:17.168Z,927.1
2018-01-03T11:18:25.289Z,927.2
2018-01-03T11:19:40.663Z,927.2
2018-01-03T11:20:48.753Z,927.4
2018-01-03T11:21:57.513Z,927.3
2018-01-03T11:23:05.085Z,927.4
2018-01-03T11:24:13.262Z,927.5
2018-01-03T11:25:21.147Z,927.7
2018-01-03T11:26:35.881Z,928.0
2018-01-03T11:27:49.703Z,928.0
2018-01-03T11:28:52.290Z,928.2
2018-01-03T11:30:00.391Z,928.5
2018-01-03T11:31:22.825Z,928.6
2018-01-03T11:32:35.329Z,928.7
2018-01-03T11:33:43.470Z,928.9
2018-01-03T11:34:51.505Z,928.9
2018-01-03T11:35:59.793Z,928.9
2018-01-03T11:37:07.885Z,928.9
2018-01-03T11:38:15.974Z,928.9
2018-01-03T11:39:24.115Z,929.0
2018-01-03T11:40:32.154Z,929.1
2018-01-03T11:41:40.254Z,928.8
2018-01-03T11:42:48.350Z,928.8
2018-01-03T11:43:56.490Z,928.9
2018-01-03T11:45:04.578Z,928.9
2018-01-03T11:46:12.610Z,928.9
2018-01-03T11:47:20.701Z,929.0
2018-01-03T11:48:28.785Z,929.0
2018-01-03T11:49:36.890Z,929.0
2018-01-03T11:50:45.026Z,929.2
2018-01-03T11:51:53.064Z,929.4
2018-01-03T11:53:01.147Z,929.5
2018-01-03T11:54:09.239Z,929.4
2018-01-03T11:55:17.329Z,929.4
2018-01-03T11:56:25.466Z,929.2
2018-01-03T11:57:34.638Z,929.3
2018-01-03T11:58:42.725Z,929.5
2018-01-03T11:59:51.219Z,929.5
2018-01-03T12:00:58.896Z,929.5
2018-01-03T12:02:07.042Z,929.3
2018-01-03T12:03:15.290Z,929.2
2018-01-03T12:04:23.151Z,929.3
2018-01-03T12:05:31.245Z,929.3
2018-01-03T12:06:39.342Z,929.2
2018-01-03T12:07:47.476Z,929.2
2018-01-03T12:08:55.506Z,929.2
2018-01-03T12:10:03.603Z,929.2
2018-01-03T12:11:11.691Z,929.3
2018-01-03T12:12:19.854Z,929.2
2018-01-03T12:13:28.055Z,929.2
2018-01-03T12:14:36.073Z,929.1
2018-01-03T12:15:44.160Z,929.1
2018-01-03T12:16:52.194Z,929.2
2018-01-03T12:18:00.289Z,929.1
2018-01-03T12:19:08.433Z,929.2
2018-01-03T12:20:16.467Z,929.1
2018-01-03T12:21:24.555Z,929.2
2018-01-03T12:22:32.648Z,929.1
2018-01-03T12:23:40.728Z,929.2
2018-01-03T12:24:48.873Z,929.2
2018-01-03T12:25:56.906Z,929.2
2018-01-03T12:27:05.002Z,929.3
2018-01-03T12:28:13.084Z,929.3
2018-01-03T12:29:21.165Z,929.5
2018-01-03T12:30:29.306Z,929.5
2018-01-03T12:31:37.428Z,929.5
2018-01-03T12:32:45.424Z,929.5
2018-01-03T12:33:53.510Z,929.4
2018-01-03T12:35:04.233Z,929.5
2018-01-03T12:36:09.736Z,929.5
2018-01-03T12:37:18.582Z,929.5
2018-01-03T12:38:26.665Z,929.6
2018-01-03T12:39:34.757Z,929.6
2018-01-03T12:40:43.002Z,929.5
2018-01-03T12:41:51.293Z,929.5
2018-01-03T12:42:59.240Z,929.6
2018-01-03T12:44:07.438Z,929.6
2018-01-03T12:45:15.375Z,929.7
2018-01-03T12:46:23.774Z,929.7
2018-01-03T12:47:36.328Z,929.7
2018-01-03T12:48:44.199Z,929.8
2018-01-03T12:49:52.808Z,929.8
2018-01-03T12:51:00.375Z,929.9
2018-01-03T12:52:08.456Z,929.9
2018-01-03T12:53:17.078Z,929.8
2018-01-03T12:54:24.634Z,929.9
2018-01-03T12:55:32.727Z,930.0
2018-01-03T12:56:43.182Z,930.0
2018-01-03T12:57:51.282Z,929.9
2018-01-03T12:58:59.421Z,930.1
2018-01-03T13:00:07.454Z,930.0
2018-01-03T13:01:15.631Z,930.0
2018-01-03T13:02:23.638Z,930.2
2018-01-03T13:03:31.782Z,930.2
2018-01-03T13:04:39.869Z,930.2
2018-01-03T13:05:48.716Z,930.2
2018-01-03T13:06:56.795Z,930.2
2018-01-03T13:08:05.301Z,930.2
2018-01-03T13:09:13.402Z,930.3
2018-01-03T13:10:21.532Z,930.3
2018-01-03T13:11:29.560Z,930.3
2018-01-03T13:12:37.717Z,930.3
2018-01-03T13:13:47.258Z,930.4
2018-01-03T13:14:53.837Z,930.5
2018-01-03T13:16:02.056Z,930.6
2018-01-03T13:17:10.087Z,930.6
2018-01-03T13:18:18.174Z,930.6
2018-01-03T13:19:26.319Z,930.7
2018-01-03T13:20:34.349Z,930.7
2018-01-03T13:21:42.489Z,930.6
2018-01-03T13:22:50.534Z,930.6
2018-01-03T13:24:02.149Z,930.6
2018-01-03T13:25:10.201Z,930.4
2018-01-03T13:26:18.289Z,930.5
2018-01-03T13:27:26.506Z,930.5
2018-01-03T13:28:34.485Z,930.6
2018-01-03T13:29:42.559Z,930.6
2018-01-03T13:30:50.641Z,930.7
2018-01-03T13:31:58.728Z,930.7
2018-01-03T13:33:06.875Z,930.8
2018-01-03T13:34:14.904Z,930.8
2018-01-03T13:35:23.054Z,930.7
2018-01-03T13:36:31.078Z,930.6
2018-01-03T13:37:39.184Z,930.7
2018-01-03T13:38:47.522Z,930.7
2018-01-03T13:39:55.360Z,930.7
2018-01-03T13:41:03.440Z,930.8
2018-01-03T13:42:11.531Z,930.7
2018-01-03T13:43:19.851Z,930.8
2018-01-03T13:44:27.994Z,930.9
2018-01-03T13:45:36.017Z,930.8
2018-01-03T13:46:44.105Z,930.9
2018-01-03T13:47:52.199Z,931.0
2018-01-03T13:49:00.443Z,930.9
2018-01-03T13:50:08.473Z,931.0
2018-01-03T13:51:16.563Z,931.1
2018-01-03T13:52:24.593Z,931.1
2018-01-03T13:53:32.679Z,931.1
2018-01-03T13:54:40.763Z,931.1
2018-01-03T13:55:49.142Z,931.2
2018-01-03T13:57:04.189Z,931.3
2018-01-03T13:58:12.450Z,931.4
2018-01-03T13:59:20.375Z,931.4
2018-01-03T14:00:30.436Z,931.4
2018-01-03T14:01:38.581Z,931.5
2018-01-03T14:02:46.627Z,931.4
2018-01-03T14:03:54.711Z,931.4
2018-01-03T14:05:03.138Z,931.5
2018-01-03T14:06:11.159Z,931.5
2018-01-03T14:07:19.306Z,931.6
2018-01-03T14:08:27.334Z,931.5
2018-01-03T14:09:35.442Z,931.6
2018-01-03T14:10:43.612Z,931.5
2018-01-03T14:11:55.586Z,931.6
2018-01-03T14:13:03.730Z,931.7
2018-01-03T14:14:11.762Z,931.6
2018-01-03T14:15:19.846Z,931.8
2018-01-03T14:16:27.939Z,931.6
2018-01-03T14:17:36.026Z,931.7
2018-01-03T14:18:44.239Z,931.6
2018-01-03T14:19:52.256Z,931.6
2018-01-03T14:21:00.419Z,931.7
2018-01-03T14:22:08.459Z,931.7
2018-01-03T14:23:16.495Z,931.6
2018-01-03T14:24:24.849Z,931.7
2018-01-03T14:25:32.801Z,931.8
2018-01-03T14:26:40.878Z,931.6
2018-01-03T14:27:48.965Z,931.8
2018-01-03T14:28:57.061Z,931.9
2018-01-03T14:30:05.199Z,932.0
2018-01-03T14:31:13.244Z,932.0
2018-01-03T14:32:23.759Z,932.0
2018-01-03T14:33:32.457Z,931.9
2018-01-03T14:34:40.558Z,932.0
2018-01-03T14:35:48.762Z,932.0
2018-01-03T14:36:56.736Z,932.0
2018-01-03T14:38:04.881Z,931.9